• Join FlightAware (Why Join?)
  • Login
  • US Flag 
06:55PM EDT


 

Airport Tracker/Info


-or-


 

Live Flight TrackerFlight Track Log ✈ EGF2976 ✈ 01-Sep-2013 ✈ KORD - KMCI

Flight Track Log - Related Links

Times and Time Zones

All times are in EDT time to prevent confusion due to time zone crossing. See the EGF2976 flight status page for this flight to view local times or setup timezone preferences in your user account.

Time Position Orientation Groundspeed Altitude Reporting Facility
EDT Latitude Longitude Course Direction KTS MPH feet Rate Location/Type
06:38PM 41.9500 -87.9667 254° West 206 237 2,900  Level Chicago TRACON
06:39PM 41.9333 -88.0500 255° West 244 281 4,800 1,740 Climbing Chicago TRACON
06:40PM 41.8925 -88.2710 255° West  Level FlightAware Approximate
06:40PM 41.9606 -88.1431 292° West 250 288 6,800  Level Chicago Center
06:41PM 41.8541 -88.3897 242° Southwest  Level FlightAware Approximate
06:41PM 41.9675 -88.2525 275° West 257 296 9,400  Level Chicago Center
06:42PM 41.8265 -88.5142 254° West  Level FlightAware Approximate
06:42PM 41.9428 -88.3494 251° West 273 314 11,000  Level Chicago Center
06:43PM 41.7990 -88.6389 254° West  Level FlightAware Approximate
06:43PM 41.9156 -88.4553 251° West 296 341 12,000  Level Chicago Center
06:44PM 41.8858 -88.5686 251° West 319 367 13,300 1,260 Climbing Chicago Center
06:45PM 41.8486 -88.6817 246° West 332 382 14,700 1,260 Climbing Chicago Center
06:47PM 41.8019 -88.7897 240° Southwest 339 390 16,000 1,500 Climbing Chicago Center
06:48PM 41.7447 -88.9181 239° Southwest 338 389 17,800 1,620 Climbing Chicago Center
06:49PM 41.6994 -89.0258 241° Southwest 335 386 19,400 1,260 Climbing Chicago Center
06:50PM 41.6550 -89.1378 242° Southwest 342 394 20,400 1,080 Climbing Chicago Center
06:51PM 41.6311 -89.2644 256° West 354 407 21,600 1,140 Climbing Chicago Center
06:52PM 41.6044 -89.3897 254° West 355 409 22,800 1,260 Climbing Chicago Center
06:53PM 41.5778 -89.5133 254° West 349 402 24,300 1,560 Climbing Chicago Center
06:54PM 41.5472 -89.6531 254° West 345 397 26,000 1,560 Climbing Chicago Center
06:55PM 41.5206 -89.7733 254° West 341 392 27,500 1,320 Climbing Chicago Center
06:56PM 41.4942 -89.8903 253° West 334 384 28,800 1,200 Climbing Chicago Center
06:57PM 41.4667 -90.0081 253° West 334 384 30,000 1,020 Climbing Chicago Center
06:58PM 41.4253 -90.1225 244° Southwest 351 404 31,000 960 Climbing Chicago Center
06:59PM 41.3683 -90.2308 235° Southwest 361 415 32,000 960 Climbing Chicago Center
07:00PM 41.3119 -90.3425 236° Southwest 365 420 33,000 960 Climbing Chicago Center
07:01PM 41.2547 -90.4564 236° Southwest 371 427 34,000 1,020 Climbing Chicago Center
07:02PM 41.1856 -90.5931 236° Southwest 373 429 35,200 960 Climbing Chicago Center
07:03PM 41.1283 -90.7036 236° Southwest 368 423 36,000 360 Climbing Chicago Center
07:04PM 41.0708 -90.8178 236° Southwest 370 426 36,000  Level Chicago Center
07:05PM 41.0089 -90.9361 235° Southwest 383 441 36,000  Level Chicago Center
07:06PM 40.9469 -91.0597 236° Southwest 398 458 36,000  Level Chicago Center
07:07PM 40.8836 -91.1797 235° Southwest 400 460 36,000  Level Chicago Center
07:08PM 40.8156 -91.3114 236° Southwest 402 463 36,000  Level Chicago Center
07:09PM 40.7519 -91.4311 235° Southwest 403 464 36,000  Level Chicago Center
07:10PM 40.6897 -91.5517 236° Southwest 402 463 36,000  Level Chicago Center
07:11PM 40.6264 -91.6728 235° Southwest 404 465 36,000  Level Chicago Center
07:12PM 40.5603 -91.7964 235° Southwest 412 474 36,000 -300 Level Chicago Center
07:13PM 40.4819 -91.9444 235° Southwest 415 478 35,500 -720 Descending Chicago Center
07:14PM 40.4178 -92.0653 235° Southwest 408 470 34,600 -960 Descending Chicago Center
07:15PM 40.3500 -92.1908 235° Southwest 421 484 33,600 -1,020 Descending Chicago Center
07:16PM 40.2803 -92.3217 235° Southwest 437 503 32,600 -840 Descending Chicago Center
07:17PM 40.2083 -92.4525 234° Southwest 438 504 32,000 -300 Descending Chicago Center
07:18PM 40.1361 -92.5867 235° Southwest 442 509 32,000  Level Chicago Center
07:19PM 40.0803 -92.7283 243° Southwest 439 505 32,000 -840 Level Chicago Center
07:20PM 40.0261 -92.8708 244° Southwest 439 505 30,400 -1,800 Descending Chicago Center
07:21PM 39.9708 -93.0142 243° Southwest 443 510 28,400 -2,040 Descending Chicago Center
07:22PM 39.9150 -93.1586 243° Southwest 449 517 26,300 -2,220 Descending Chicago Center
07:23PM 39.8483 -93.3278 243° Southwest 441 507 23,900 -2,160 Descending Chicago Center
07:25PM 39.7844 -93.4889 243° Southwest 429 494 21,500 -1,980 Descending Kansas City Center
07:26PM 39.7311 -93.6169 242° Southwest 413 475 19,500 -2,100 Descending Kansas City Center
07:27PM 39.6767 -93.7567 243° Southwest 395 455 17,300 -1,860 Descending Kansas City Center
07:28PM 39.6303 -93.8750 243° Southwest 384 442 15,800 -1,500 Descending Kansas City Center
07:29PM 39.5767 -93.9839 237° Southwest 373 429 14,300 -1,620 Descending Kansas City Center
07:30PM 39.5122 -94.1078 236° Southwest 371 427 12,600 -1,140 Descending Kansas City Center
07:31PM 39.4606 -94.2103 237° Southwest 357 411 12,000 -660 Descending Kansas City Center
07:32PM 39.4081 -94.3122 236° Southwest 301 346 11,300 -840 Descending Kansas City Center
07:33PM 39.3675 -94.3936 237° Southwest 283 326 10,300 -1,140 Descending Kansas City Center
07:34PM 39.3278 -94.4714 237° Southwest 273 314 9,000 -1,380 Descending Kansas City Center
07:35PM 39.2858 -94.5519 236° Southwest 245 282 7,600 -1,620 Descending Kansas City Center
07:36PM 39.2400 -94.6011 220° Southwest 244 281 5,800 -1,680 Descending Kansas City Center
07:37PM 39.1758 -94.6219 194° South 248 285 4,200 -1,380 Descending Kansas City Center
07:38PM 39.1758 -94.7061 270° West 218 251 3,000 -1,020 Descending Kansas City Center
07:39PM 39.2231 -94.7231 344° North 185 213 2,200 -840 Descending Kansas City Center
07:40PM 39.2636 -94.7133 11° North 138 159 1,400 -540 Descending Kansas City Center
07:41PM 39.3028 -94.7008 14° North 141 162 1,100 -300 Descending Kansas City Center